Date Air Temp(c) Soil Temp(c) Humidity %age Evaporation
Rate (cm/day)
Rain Fall
(mm)
Wind Speed
Km/hr
Max Min 8am 5pm 8am 5pm
01-02-18 22.0 14.0 14.0 21.0 100 65.0 0.60 5.2
02-02-18 22.0 8.0 10.0 21.0 85.0 65.0 0.40 2.4
03-02-18 22.0 8.0 10.0 22.0 85.0 65.0 0.40 2.5
04-02-18 23.0 9.0 10.0 22.0 85.0 70.0 0.30 3.3
05-02-18 23.0 8.0 11.0 22.0 87.0 75.0 0.40 4.1
06-02-18 23.0 8.0 10.0 23.0 88.0 66.0 0.50 1.9
07-02-18 21.0 9.0 10.2 22.0 85.0 66.0 0.40 4.8
08-02-18 22.0 10.0 10.0 22.0 85.0 70.0 0.40 3.6
09-02-18 21.0 10.0 11.0 22.0 85.0 68.0 0.30 3.5
10-02-18 20.0 11.0 11.2 21.8 86.0 61.0 0.30 4.3
11-02-18 22.0 10.0 11.6 21.6 87.0 63.0 0.35 1.5 17.2
12-02-18 20.0 11.0 11.0 21.0 87.0 69.0 0.40 6.7
13-02-18 17.0 11.0 11.2 20.0 85.0 70.0 0.40 8.3
14-02-18 20.0 10.0 11.0 23.6 86.0 60.0 0.30 1.8
15-02-18 22.0 11.0 13.0 24.0 100 60.0 0.30 2.5
16-02-18 20.0 12.0 14.0 36.0 100 70.0 0.40 3.3
17-02-18 21.0 12.0 16.0 34.0 85.0 65.0 0.40 2.9
18-02-18 20.0 12.0 15.0 36.0 87.0 63.0 0.40 0.8
19-02-18 26.0 12.0 16.0 36.2 86.0 65.0 0.60 3.6
20-02-18 22.0 14.0 15.8 27.6 86.0 57.0 0.40 5.2
21-02-18 25.0 17.0 17.8 27.4 68.0 58.8 0.30 4.2
22-02-18 16.0 18.6 69.0